sensor_id;sensor_type;location;lat;lon;timestamp;P1;P2;P0
43479;PMS5003;29067;35.492;-97.520;2022-10-31T00:01:27;19;18;
43479;PMS5003;29067;35.492;-97.520;2022-10-31T00:03:56;18;17;
43479;PMS5003;29067;35.492;-97.520;2022-10-31T00:06:25;22;21;
43479;PMS5003;29067;35.492;-97.520;2022-10-31T00:08:54;21;20;
43479;PMS5003;29067;35.492;-97.520;2022-10-31T00:11:24;14;14;
43479;PMS5003;29067;35.492;-97.520;2022-10-31T00:13:57;14;14;
43479;PMS5003;29067;35.492;-97.520;2022-10-31T00:16:26;13;13;
43479;PMS5003;29067;35.492;-97.520;2022-10-31T00:18:57;16;13;
43479;PMS5003;29067;35.492;-97.520;2022-10-31T00:21:27;12;12;
43479;PMS5003;29067;35.492;-97.520;2022-10-31T00:23:56;16;15;
43479;PMS5003;29067;35.492;-97.520;2022-10-31T00:26:26;16;13;
43479;PMS5003;29067;35.492;-97.520;2022-10-31T00:28:54;13;13;
43479;PMS5003;29067;35.492;-97.520;2022-10-31T00:31:24;17;16;
43479;PMS5003;29067;35.492;-97.520;2022-10-31T00:33:51;12;12;
43479;PMS5003;29067;35.492;-97.520;2022-10-31T00:36:25;16;15;
43479;PMS5003;29067;35.492;-97.520;2022-10-31T00:38:54;15;15;
43479;PMS5003;29067;35.492;-97.520;2022-10-31T00:41:24;15;14;
43479;PMS5003;29067;35.492;-97.520;2022-10-31T00:43:52;16;16;
43479;PMS5003;29067;35.492;-97.520;2022-10-31T00:46:21;17;16;
43479;PMS5003;29067;35.492;-97.520;2022-10-31T00:48:49;15;15;
43479;PMS5003;29067;35.492;-97.520;2022-10-31T00:51:18;20;19;
43479;PMS5003;29067;35.492;-97.520;2022-10-31T00:53:46;18;17;
43479;PMS5003;29067;35.492;-97.520;2022-10-31T00:56:13;19;18;
43479;PMS5003;29067;35.492;-97.520;2022-10-31T00:58:42;18;18;
43479;PMS5003;29067;35.492;-97.520;2022-10-31T01:01:10;19;17;
43479;PMS5003;29067;35.492;-97.520;2022-10-31T01:03:38;20;18;
43479;PMS5003;29067;35.492;-97.520;2022-10-31T01:06:08;18;17;
43479;PMS5003;29067;35.492;-97.520;2022-10-31T01:08:37;19;17;
43479;PMS5003;29067;35.492;-97.520;2022-10-31T01:11:07;16;16;
43479;PMS5003;29067;35.492;-97.520;2022-10-31T01:13:37;20;20;
43479;PMS5003;29067;35.492;-97.520;2022-10-31T01:16:06;17;17;
43479;PMS5003;29067;35.492;-97.520;2022-10-31T01:18:35;17;17;
43479;PMS5003;29067;35.492;-97.520;2022-10-31T01:21:09;19;19;
43479;PMS5003;29067;35.492;-97.520;2022-10-31T01:23:39;21;20;
43479;PMS5003;29067;35.492;-97.520;2022-10-31T01:26:08;24;21;
43479;PMS5003;29067;35.492;-97.520;2022-10-31T01:28:38;18;17;
43479;PMS5003;29067;35.492;-97.520;2022-10-31T01:31:12;20;20;
43479;PMS5003;29067;35.492;-97.520;2022-10-31T01:33:40;19;18;
43479;PMS5003;29067;35.492;-97.520;2022-10-31T01:36:13;19;19;
43479;PMS5003;29067;35.492;-97.520;2022-10-31T01:38:43;19;18;
43479;PMS5003;29067;35.492;-97.520;2022-10-31T01:41:13;24;24;
43479;PMS5003;29067;35.492;-97.520;2022-10-31T01:43:45;31;28;
43479;PMS5003;29067;35.492;-97.520;2022-10-31T01:46:19;24;24;
43479;PMS5003;29067;35.492;-97.520;2022-10-31T01:48:49;18;17;
43479;PMS5003;29067;35.492;-97.520;2022-10-31T01:51:18;18;17;
43479;PMS5003;29067;35.492;-97.520;2022-10-31T01:53:48;20;19;
43479;PMS5003;29067;35.492;-97.520;2022-10-31T01:56:23;17;17;
43479;PMS5003;29067;35.492;-97.520;2022-10-31T01:58:52;18;17;
43479;PMS5003;29067;35.492;-97.520;2022-10-31T02:01:21;20;19;
43479;PMS5003;29067;35.492;-97.520;2022-10-31T02:03:49;29;28;
43479;PMS5003;29067;35.492;-97.520;2022-10-31T02:06:21;22;20;
43479;PMS5003;29067;35.492;-97.520;2022-10-31T02:09:01;27;25;
43479;PMS5003;29067;35.492;-97.520;2022-10-31T02:11:30;32;30;
43479;PMS5003;29067;35.492;-97.520;2022-10-31T02:14:05;22;20;
43479;PMS5003;29067;35.492;-97.520;2022-10-31T02:16:38;37;37;
43479;PMS5003;29067;35.492;-97.520;2022-10-31T02:19:06;14;14;
43479;PMS5003;29067;35.492;-97.520;2022-10-31T02:21:40;16;16;
43479;PMS5003;29067;35.492;-97.520;2022-10-31T02:24:20;16;15;
43479;PMS5003;29067;35.492;-97.520;2022-10-31T02:27:09;18;18;
43479;PMS5003;29067;35.492;-97.520;2022-10-31T02:30:03;15;14;
43479;PMS5003;29067;35.492;-97.520;2022-10-31T02:32:43;14;14;
43479;PMS5003;29067;35.492;-97.520;2022-10-31T02:35:23;16;16;
43479;PMS5003;29067;35.492;-97.520;2022-10-31T02:38:02;16;16;
43479;PMS5003;29067;35.492;-97.520;2022-10-31T02:40:36;18;16;
43479;PMS5003;29067;35.492;-97.520;2022-10-31T02:43:16;15;14;
43479;PMS5003;29067;35.492;-97.520;2022-10-31T02:45:50;15;15;
43479;PMS5003;29067;35.492;-97.520;2022-10-31T02:48:25;16;16;
43479;PMS5003;29067;35.492;-97.520;2022-10-31T02:50:56;14;14;
43479;PMS5003;29067;35.492;-97.520;2022-10-31T02:53:26;14;14;
43479;PMS5003;29067;35.492;-97.520;2022-10-31T02:56:01;16;16;
43479;PMS5003;29067;35.492;-97.520;2022-10-31T02:58:38;17;14;
43479;PMS5003;29067;35.492;-97.520;2022-10-31T03:01:20;13;12;
43479;PMS5003;29067;35.492;-97.520;2022-10-31T03:04:04;19;14;
43479;PMS5003;29067;35.492;-97.520;2022-10-31T03:06:50;13;13;
43479;PMS5003;29067;35.492;-97.520;2022-10-31T03:09:33;14;14;
43479;PMS5003;29067;35.492;-97.520;2022-10-31T03:12:07;14;13;
43479;PMS5003;29067;35.492;-97.520;2022-10-31T03:14:43;22;16;
43479;PMS5003;29067;35.492;-97.520;2022-10-31T03:17:18;15;14;
43479;PMS5003;29067;35.492;-97.520;2022-10-31T03:19:55;13;11;
43479;PMS5003;29067;35.492;-97.520;2022-10-31T03:22:27;15;14;
43479;PMS5003;29067;35.492;-97.520;2022-10-31T03:24:59;30;27;
43479;PMS5003;29067;35.492;-97.520;2022-10-31T03:27:30;14;14;
43479;PMS5003;29067;35.492;-97.520;2022-10-31T03:30:02;19;16;
43479;PMS5003;29067;35.492;-97.520;2022-10-31T03:32:34;16;15;
43479;PMS5003;29067;35.492;-97.520;2022-10-31T03:35:08;15;14;
43479;PMS5003;29067;35.492;-97.520;2022-10-31T03:37:37;16;16;
43479;PMS5003;29067;35.492;-97.520;2022-10-31T03:40:07;14;14;
43479;PMS5003;29067;35.492;-97.520;2022-10-31T03:42:39;15;15;
43479;PMS5003;29067;35.492;-97.520;2022-10-31T03:45:11;20;17;
43479;PMS5003;29067;35.492;-97.520;2022-10-31T03:47:54;16;15;
43479;PMS5003;29067;35.492;-97.520;2022-10-31T03:50:24;17;17;
43479;PMS5003;29067;35.492;-97.520;2022-10-31T03:52:57;16;16;
43479;PMS5003;29067;35.492;-97.520;2022-10-31T03:55:30;16;16;
43479;PMS5003;29067;35.492;-97.520;2022-10-31T03:58:04;15;15;
43479;PMS5003;29067;35.492;-97.520;2022-10-31T04:00:46;17;17;
43479;PMS5003;29067;35.492;-97.520;2022-10-31T04:03:17;16;16;
43479;PMS5003;29067;35.492;-97.520;2022-10-31T04:05:50;17;16;
43479;PMS5003;29067;35.492;-97.520;2022-10-31T04:08:22;18;17;
43479;PMS5003;29067;35.492;-97.520;2022-10-31T04:10:56;18;17;
43479;PMS5003;29067;35.492;-97.520;2022-10-31T04:13:31;19;19;
43479;PMS5003;29067;35.492;-97.520;2022-10-31T04:16:04;19;18;
43479;PMS5003;29067;35.492;-97.520;2022-10-31T04:18:33;20;19;
43479;PMS5003;29067;35.492;-97.520;2022-10-31T04:21:02;17;17;
43479;PMS5003;29067;35.492;-97.520;2022-10-31T04:23:33;20;18;
43479;PMS5003;29067;35.492;-97.520;2022-10-31T04:26:02;18;17;
43479;PMS5003;29067;35.492;-97.520;2022-10-31T04:28:31;21;20;
43479;PMS5003;29067;35.492;-97.520;2022-10-31T04:31:03;15;15;
43479;PMS5003;29067;35.492;-97.520;2022-10-31T04:33:31;20;19;
43479;PMS5003;29067;35.492;-97.520;2022-10-31T04:35:59;18;18;
43479;PMS5003;29067;35.492;-97.520;2022-10-31T04:38:27;21;20;
43479;PMS5003;29067;35.492;-97.520;2022-10-31T04:40:54;17;17;
43479;PMS5003;29067;35.492;-97.520;2022-10-31T04:43:22;18;16;
43479;PMS5003;29067;35.492;-97.520;2022-10-31T04:45:50;19;17;
43479;PMS5003;29067;35.492;-97.520;2022-10-31T04:48:29;17;17;
43479;PMS5003;29067;35.492;-97.520;2022-10-31T04:51:02;21;19;
43479;PMS5003;29067;35.492;-97.520;2022-10-31T04:53:30;16;16;
43479;PMS5003;29067;35.492;-97.520;2022-10-31T04:55:58;20;16;
43479;PMS5003;29067;35.492;-97.520;2022-10-31T04:58:27;18;16;
43479;PMS5003;29067;35.492;-97.520;2022-10-31T05:00:55;17;17;
43479;PMS5003;29067;35.492;-97.520;2022-10-31T05:03:23;17;15;
43479;PMS5003;29067;35.492;-97.520;2022-10-31T05:05:55;18;16;
43479;PMS5003;29067;35.492;-97.520;2022-10-31T05:08:24;16;16;
43479;PMS5003;29067;35.492;-97.520;2022-10-31T05:10:51;18;15;
43479;PMS5003;29067;35.492;-97.520;2022-10-31T05:13:19;15;15;
43479;PMS5003;29067;35.492;-97.520;2022-10-31T05:15:47;14;14;
43479;PMS5003;29067;35.492;-97.520;2022-10-31T05:18:16;17;16;
43479;PMS5003;29067;35.492;-97.520;2022-10-31T05:20:44;15;15;
43479;PMS5003;29067;35.492;-97.520;2022-10-31T05:23:13;18;16;
43479;PMS5003;29067;35.492;-97.520;2022-10-31T05:25:41;14;14;
43479;PMS5003;29067;35.492;-97.520;2022-10-31T05:28:09;15;14;
43479;PMS5003;29067;35.492;-97.520;2022-10-31T05:30:36;17;15;
43479;PMS5003;29067;35.492;-97.520;2022-10-31T05:33:05;18;15;
43479;PMS5003;29067;35.492;-97.520;2022-10-31T05:35:33;14;14;
43479;PMS5003;29067;35.492;-97.520;2022-10-31T05:38:06;14;14;
43479;PMS5003;29067;35.492;-97.520;2022-10-31T05:40:34;16;16;
43479;PMS5003;29067;35.492;-97.520;2022-10-31T05:43:02;15;15;
43479;PMS5003;29067;35.492;-97.520;2022-10-31T05:45:35;16;16;
43479;PMS5003;29067;35.492;-97.520;2022-10-31T05:48:04;19;19;
43479;PMS5003;29067;35.492;-97.520;2022-10-31T05:50:33;19;19;
43479;PMS5003;29067;35.492;-97.520;2022-10-31T05:53:07;20;20;
43479;PMS5003;29067;35.492;-97.520;2022-10-31T05:55:35;22;21;
43479;PMS5003;29067;35.492;-97.520;2022-10-31T05:58:03;20;20;
43479;PMS5003;29067;35.492;-97.520;2022-10-31T06:00:31;22;19;
43479;PMS5003;29067;35.492;-97.520;2022-10-31T06:02:59;26;22;
43479;PMS5003;29067;35.492;-97.520;2022-10-31T06:05:29;25;23;
43479;PMS5003;29067;35.492;-97.520;2022-10-31T06:07:57;24;24;
43479;PMS5003;29067;35.492;-97.520;2022-10-31T06:10:25;33;28;
43479;PMS5003;29067;35.492;-97.520;2022-10-31T06:12:54;26;22;
43479;PMS5003;29067;35.492;-97.520;2022-10-31T06:15:22;22;22;
43479;PMS5003;29067;35.492;-97.520;2022-10-31T06:17:59;28;26;
43479;PMS5003;29067;35.492;-97.520;2022-10-31T06:20:27;27;25;
43479;PMS5003;29067;35.492;-97.520;2022-10-31T06:22:57;26;24;
43479;PMS5003;29067;35.492;-97.520;2022-10-31T06:25:25;27;25;
43479;PMS5003;29067;35.492;-97.520;2022-10-31T06:27:54;26;25;
43479;PMS5003;29067;35.492;-97.520;2022-10-31T06:30:23;22;21;
43479;PMS5003;29067;35.492;-97.520;2022-10-31T06:32:51;21;21;
43479;PMS5003;29067;35.492;-97.520;2022-10-31T06:35:29;23;23;
43479;PMS5003;29067;35.492;-97.520;2022-10-31T06:37:58;24;23;
43479;PMS5003;29067;35.492;-97.520;2022-10-31T06:40:26;20;18;
43479;PMS5003;29067;35.492;-97.520;2022-10-31T06:42:58;20;20;
43479;PMS5003;29067;35.492;-97.520;2022-10-31T06:45:26;24;23;
43479;PMS5003;29067;35.492;-97.520;2022-10-31T06:48:00;29;23;
43479;PMS5003;29067;35.492;-97.520;2022-10-31T06:50:33;23;20;
43479;PMS5003;29067;35.492;-97.520;2022-10-31T06:53:02;21;19;
43479;PMS5003;29067;35.492;-97.520;2022-10-31T06:55:37;23;23;
43479;PMS5003;29067;35.492;-97.520;2022-10-31T06:58:04;20;19;
43479;PMS5003;29067;35.492;-97.520;2022-10-31T07:00:32;17;17;
43479;PMS5003;29067;35.492;-97.520;2022-10-31T07:03:06;21;20;
43479;PMS5003;29067;35.492;-97.520;2022-10-31T07:05:37;19;19;
43479;PMS5003;29067;35.492;-97.520;2022-10-31T07:08:06;19;18;
43479;PMS5003;29067;35.492;-97.520;2022-10-31T07:10:36;19;18;
43479;PMS5003;29067;35.492;-97.520;2022-10-31T07:13:08;23;22;
43479;PMS5003;29067;35.492;-97.520;2022-10-31T07:15:38;26;21;
43479;PMS5003;29067;35.492;-97.520;2022-10-31T07:18:08;20;19;
43479;PMS5003;29067;35.492;-97.520;2022-10-31T07:20:37;20;19;
43479;PMS5003;29067;35.492;-97.520;2022-10-31T07:23:05;19;16;
43479;PMS5003;29067;35.492;-97.520;2022-10-31T07:25:33;18;16;
43479;PMS5003;29067;35.492;-97.520;2022-10-31T07:28:01;21;20;
43479;PMS5003;29067;35.492;-97.520;2022-10-31T07:30:29;21;20;
43479;PMS5003;29067;35.492;-97.520;2022-10-31T07:32:57;18;17;
43479;PMS5003;29067;35.492;-97.520;2022-10-31T07:35:26;17;17;
43479;PMS5003;29067;35.492;-97.520;2022-10-31T07:37:55;18;17;
43479;PMS5003;29067;35.492;-97.520;2022-10-31T07:40:24;19;18;
43479;PMS5003;29067;35.492;-97.520;2022-10-31T07:42:53;20;20;
43479;PMS5003;29067;35.492;-97.520;2022-10-31T07:45:20;17;17;
43479;PMS5003;29067;35.492;-97.520;2022-10-31T07:47:55;17;17;
43479;PMS5003;29067;35.492;-97.520;2022-10-31T07:50:29;17;17;
43479;PMS5003;29067;35.492;-97.520;2022-10-31T07:52:59;16;15;
43479;PMS5003;29067;35.492;-97.520;2022-10-31T07:55:29;16;16;
43479;PMS5003;29067;35.492;-97.520;2022-10-31T07:58:03;15;15;
43479;PMS5003;29067;35.492;-97.520;2022-10-31T08:00:33;16;16;
43479;PMS5003;29067;35.492;-97.520;2022-10-31T08:03:03;21;19;
43479;PMS5003;29067;35.492;-97.520;2022-10-31T08:05:33;19;18;
43479;PMS5003;29067;35.492;-97.520;2022-10-31T08:08:01;23;22;
43479;PMS5003;29067;35.492;-97.520;2022-10-31T08:10:30;21;19;
43479;PMS5003;29067;35.492;-97.520;2022-10-31T08:12:58;19;19;
43479;PMS5003;29067;35.492;-97.520;2022-10-31T08:15:33;21;20;
43479;PMS5003;29067;35.492;-97.520;2022-10-31T08:18:01;22;19;
43479;PMS5003;29067;35.492;-97.520;2022-10-31T08:20:30;21;21;
43479;PMS5003;29067;35.492;-97.520;2022-10-31T08:22:58;23;23;
43479;PMS5003;29067;35.492;-97.520;2022-10-31T08:25:28;23;21;
43479;PMS5003;29067;35.492;-97.520;2022-10-31T08:27:58;20;18;
43479;PMS5003;29067;35.492;-97.520;2022-10-31T08:30:31;21;20;
43479;PMS5003;29067;35.492;-97.520;2022-10-31T08:33:03;22;22;
43479;PMS5003;29067;35.492;-97.520;2022-10-31T08:35:38;22;22;
43479;PMS5003;29067;35.492;-97.520;2022-10-31T08:38:12;27;21;
43479;PMS5003;29067;35.492;-97.520;2022-10-31T08:40:40;26;26;
43479;PMS5003;29067;35.492;-97.520;2022-10-31T08:43:10;19;19;
43479;PMS5003;29067;35.492;-97.520;2022-10-31T08:45:41;21;20;
43479;PMS5003;29067;35.492;-97.520;2022-10-31T08:48:10;22;21;
43479;PMS5003;29067;35.492;-97.520;2022-10-31T08:50:40;22;21;
43479;PMS5003;29067;35.492;-97.520;2022-10-31T08:53:11;20;20;
43479;PMS5003;29067;35.492;-97.520;2022-10-31T08:55:45;21;20;
43479;PMS5003;29067;35.492;-97.520;2022-10-31T08:58:15;21;20;
43479;PMS5003;29067;35.492;-97.520;2022-10-31T09:00:44;19;18;
43479;PMS5003;29067;35.492;-97.520;2022-10-31T09:03:14;17;17;
43479;PMS5003;29067;35.492;-97.520;2022-10-31T09:05:43;20;19;
43479;PMS5003;29067;35.492;-97.520;2022-10-31T09:08:11;21;19;
43479;PMS5003;29067;35.492;-97.520;2022-10-31T09:10:40;20;19;
43479;PMS5003;29067;35.492;-97.520;2022-10-31T09:13:09;18;18;
43479;PMS5003;29067;35.492;-97.520;2022-10-31T09:15:40;22;20;
43479;PMS5003;29067;35.492;-97.520;2022-10-31T09:18:11;18;17;
43479;PMS5003;29067;35.492;-97.520;2022-10-31T09:20:50;20;20;
43479;PMS5003;29067;35.492;-97.520;2022-10-31T09:23:18;20;19;
43479;PMS5003;29067;35.492;-97.520;2022-10-31T09:25:48;18;17;
43479;PMS5003;29067;35.492;-97.520;2022-10-31T09:28:17;17;17;
43479;PMS5003;29067;35.492;-97.520;2022-10-31T09:30:48;17;15;
43479;PMS5003;29067;35.492;-97.520;2022-10-31T09:33:17;15;14;
43479;PMS5003;29067;35.492;-97.520;2022-10-31T09:35:45;16;15;
43479;PMS5003;29067;35.492;-97.520;2022-10-31T09:38:14;17;15;
43479;PMS5003;29067;35.492;-97.520;2022-10-31T09:40:44;12;12;
43479;PMS5003;29067;35.492;-97.520;2022-10-31T09:43:15;22;19;
43479;PMS5003;29067;35.492;-97.520;2022-10-31T09:45:52;20;15;
43479;PMS5003;29067;35.492;-97.520;2022-10-31T09:48:29;23;19;
43479;PMS5003;29067;35.492;-97.520;2022-10-31T09:51:13;17;15;
43479;PMS5003;29067;35.492;-97.520;2022-10-31T09:53:47;14;14;
43479;PMS5003;29067;35.492;-97.520;2022-10-31T09:56:21;14;14;
43479;PMS5003;29067;35.492;-97.520;2022-10-31T09:58:57;15;13;
43479;PMS5003;29067;35.492;-97.520;2022-10-31T10:01:30;14;14;
43479;PMS5003;29067;35.492;-97.520;2022-10-31T10:04:04;16;16;
43479;PMS5003;29067;35.492;-97.520;2022-10-31T10:06:47;13;13;
43479;PMS5003;29067;35.492;-97.520;2022-10-31T10:09:18;14;14;
43479;PMS5003;29067;35.492;-97.520;2022-10-31T10:11:53;12;12;
43479;PMS5003;29067;35.492;-97.520;2022-10-31T10:14:32;13;12;
43479;PMS5003;29067;35.492;-97.520;2022-10-31T10:17:16;23;23;
43479;PMS5003;29067;35.492;-97.520;2022-10-31T10:19:56;23;21;
43479;PMS5003;29067;35.492;-97.520;2022-10-31T10:22:38;69;66;
43479;PMS5003;29067;35.492;-97.520;2022-10-31T10:25:15;33;32;
43479;PMS5003;29067;35.492;-97.520;2022-10-31T10:27:49;24;22;
43479;PMS5003;29067;35.492;-97.520;2022-10-31T10:30:34;61;57;
43479;PMS5003;29067;35.492;-97.520;2022-10-31T10:33:09;64;63;
43479;PMS5003;29067;35.492;-97.520;2022-10-31T10:35:40;33;27;
43479;PMS5003;29067;35.492;-97.520;2022-10-31T10:38:15;19;19;
43479;PMS5003;29067;35.492;-97.520;2022-10-31T10:40:50;30;30;
43479;PMS5003;29067;35.492;-97.520;2022-10-31T10:43:21;31;30;
43479;PMS5003;29067;35.492;-97.520;2022-10-31T10:45:53;19;18;
43479;PMS5003;29067;35.492;-97.520;2022-10-31T10:48:31;20;19;
43479;PMS5003;29067;35.492;-97.520;2022-10-31T10:51:12;20;19;
43479;PMS5003;29067;35.492;-97.520;2022-10-31T10:53:52;19;19;
43479;PMS5003;29067;35.492;-97.520;2022-10-31T10:56:33;19;18;
43479;PMS5003;29067;35.492;-97.520;2022-10-31T10:59:09;35;33;
43479;PMS5003;29067;35.492;-97.520;2022-10-31T11:01:43;37;37;
43479;PMS5003;29067;35.492;-97.520;2022-10-31T11:04:23;32;32;
43479;PMS5003;29067;35.492;-97.520;2022-10-31T11:06:57;32;32;
43479;PMS5003;29067;35.492;-97.520;2022-10-31T11:09:27;22;17;
43479;PMS5003;29067;35.492;-97.520;2022-10-31T11:11:55;32;32;
43479;PMS5003;29067;35.492;-97.520;2022-10-31T11:14:24;50;49;
43479;PMS5003;29067;35.492;-97.520;2022-10-31T11:16:54;57;57;
43479;PMS5003;29067;35.492;-97.520;2022-10-31T11:19:36;38;37;
43479;PMS5003;29067;35.492;-97.520;2022-10-31T11:22:07;24;23;
43479;PMS5003;29067;35.492;-97.520;2022-10-31T11:24:42;17;16;
43479;PMS5003;29067;35.492;-97.520;2022-10-31T11:27:13;16;16;
43479;PMS5003;29067;35.492;-97.520;2022-10-31T11:29:43;14;13;
43479;PMS5003;29067;35.492;-97.520;2022-10-31T11:32:16;17;15;
43479;PMS5003;29067;35.492;-97.520;2022-10-31T11:34:49;13;13;
43479;PMS5003;29067;35.492;-97.520;2022-10-31T11:37:21;19;19;
43479;PMS5003;29067;35.492;-97.520;2022-10-31T11:39:52;16;16;
43479;PMS5003;29067;35.492;-97.520;2022-10-31T11:42:22;14;13;
43479;PMS5003;29067;35.492;-97.520;2022-10-31T11:44:53;17;16;
43479;PMS5003;29067;35.492;-97.520;2022-10-31T11:47:25;22;19;
43479;PMS5003;29067;35.492;-97.520;2022-10-31T11:49:55;17;15;
43479;PMS5003;29067;35.492;-97.520;2022-10-31T11:52:30;16;15;
43479;PMS5003;29067;35.492;-97.520;2022-10-31T11:55:00;20;19;
43479;PMS5003;29067;35.492;-97.520;2022-10-31T11:57:42;21;20;
43479;PMS5003;29067;35.492;-97.520;2022-10-31T12:03:11;16;15;
43479;PMS5003;29067;35.492;-97.520;2022-10-31T12:05:55;15;13;
43479;PMS5003;29067;35.492;-97.520;2022-10-31T12:08:27;14;14;
43479;PMS5003;29067;35.492;-97.520;2022-10-31T12:10:59;17;14;
43479;PMS5003;29067;35.492;-97.520;2022-10-31T12:13:37;17;14;
43479;PMS5003;29067;35.492;-97.520;2022-10-31T12:16:12;18;17;
43479;PMS5003;29067;35.492;-97.520;2022-10-31T12:18:50;16;15;
43479;PMS5003;29067;35.492;-97.520;2022-10-31T12:21:33;17;14;
43479;PMS5003;29067;35.492;-97.520;2022-10-31T12:24:13;18;17;
43479;PMS5003;29067;35.492;-97.520;2022-10-31T12:26:54;14;12;
43479;PMS5003;29067;35.492;-97.520;2022-10-31T12:29:37;18;17;
43479;PMS5003;29067;35.492;-97.520;2022-10-31T12:32:21;15;15;
43479;PMS5003;29067;35.492;-97.520;2022-10-31T12:35:01;15;15;
43479;PMS5003;29067;35.492;-97.520;2022-10-31T12:38:15;17;16;
43479;PMS5003;29067;35.492;-97.520;2022-10-31T12:41:01;17;16;
43479;PMS5003;29067;35.492;-97.520;2022-10-31T12:43:42;23;23;
43479;PMS5003;29067;35.492;-97.520;2022-10-31T12:46:24;53;53;
43479;PMS5003;29067;35.492;-97.520;2022-10-31T12:49:05;47;46;
43479;PMS5003;29067;35.492;-97.520;2022-10-31T12:51:48;82;82;
43479;PMS5003;29067;35.492;-97.520;2022-10-31T12:54:29;40;39;
43479;PMS5003;29067;35.492;-97.520;2022-10-31T12:57:09;44;44;
43479;PMS5003;29067;35.492;-97.520;2022-10-31T12:59:48;19;19;
43479;PMS5003;29067;35.492;-97.520;2022-10-31T13:02:21;15;15;
43479;PMS5003;29067;35.492;-97.520;2022-10-31T13:04:55;16;14;
43479;PMS5003;29067;35.492;-97.520;2022-10-31T13:07:27;17;13;
43479;PMS5003;29067;35.492;-97.520;2022-10-31T13:10:05;14;14;
43479;PMS5003;29067;35.492;-97.520;2022-10-31T13:12:41;18;17;
43479;PMS5003;29067;35.492;-97.520;2022-10-31T13:15:13;15;15;
43479;PMS5003;29067;35.492;-97.520;2022-10-31T13:17:46;13;13;
43479;PMS5003;29067;35.492;-97.520;2022-10-31T13:20:20;22;22;
43479;PMS5003;29067;35.492;-97.520;2022-10-31T13:23:00;27;26;
43479;PMS5003;29067;35.492;-97.520;2022-10-31T13:25:38;17;16;
43479;PMS5003;29067;35.492;-97.520;2022-10-31T13:28:12;14;13;
43479;PMS5003;29067;35.492;-97.520;2022-10-31T13:30:51;16;16;
43479;PMS5003;29067;35.492;-97.520;2022-10-31T13:33:21;13;13;
43479;PMS5003;29067;35.492;-97.520;2022-10-31T13:35:54;14;13;
43479;PMS5003;29067;35.492;-97.520;2022-10-31T13:38:33;14;13;
43479;PMS5003;29067;35.492;-97.520;2022-10-31T13:41:06;18;17;
43479;PMS5003;29067;35.492;-97.520;2022-10-31T13:43:55;18;17;
43479;PMS5003;29067;35.492;-97.520;2022-10-31T13:46:34;16;14;
43479;PMS5003;29067;35.492;-97.520;2022-10-31T13:49:04;15;13;
43479;PMS5003;29067;35.492;-97.520;2022-10-31T13:51:52;17;17;
43479;PMS5003;29067;35.492;-97.520;2022-10-31T13:54:32;20;16;
43479;PMS5003;29067;35.492;-97.520;2022-10-31T13:57:01;18;16;
43479;PMS5003;29067;35.492;-97.520;2022-10-31T13:59:35;18;16;
43479;PMS5003;29067;35.492;-97.520;2022-10-31T14:02:12;18;18;
43479;PMS5003;29067;35.492;-97.520;2022-10-31T14:04:44;16;16;
43479;PMS5003;29067;35.492;-97.520;2022-10-31T14:07:15;19;15;
43479;PMS5003;29067;35.492;-97.520;2022-10-31T14:09:50;14;14;
43479;PMS5003;29067;35.492;-97.520;2022-10-31T14:12:23;19;16;
43479;PMS5003;29067;35.492;-97.520;2022-10-31T14:15:12;15;14;
43479;PMS5003;29067;35.492;-97.520;2022-10-31T14:17:45;16;16;
43479;PMS5003;29067;35.492;-97.520;2022-10-31T14:20:47;14;13;
43479;PMS5003;29067;35.492;-97.520;2022-10-31T14:23:48;15;13;
43479;PMS5003;29067;35.492;-97.520;2022-10-31T14:26:19;15;13;
43479;PMS5003;29067;35.492;-97.520;2022-10-31T14:28:58;13;13;
43479;PMS5003;29067;35.492;-97.520;2022-10-31T14:31:31;11;11;
43479;PMS5003;29067;35.492;-97.520;2022-10-31T14:34:06;10;10;
43479;PMS5003;29067;35.492;-97.520;2022-10-31T14:36:50;8;8;
43479;PMS5003;29067;35.492;-97.520;2022-10-31T14:39:27;10;10;
43479;PMS5003;29067;35.492;-97.520;2022-10-31T14:42:04;9;8;
43479;PMS5003;29067;35.492;-97.520;2022-10-31T14:44:49;10;10;
43479;PMS5003;29067;35.492;-97.520;2022-10-31T14:47:33;9;9;
43479;PMS5003;29067;35.492;-97.520;2022-10-31T14:50:15;9;9;
43479;PMS5003;29067;35.492;-97.520;2022-10-31T14:52:50;7;7;
43479;PMS5003;29067;35.492;-97.520;2022-10-31T14:55:21;8;7;
43479;PMS5003;29067;35.492;-97.520;2022-10-31T14:57:52;9;9;
43479;PMS5003;29067;35.492;-97.520;2022-10-31T15:00:23;7;7;
43479;PMS5003;29067;35.492;-97.520;2022-10-31T15:02:57;7;7;
43479;PMS5003;29067;35.492;-97.520;2022-10-31T15:05:40;8;7;
43479;PMS5003;29067;35.492;-97.520;2022-10-31T15:08:13;6;6;
43479;PMS5003;29067;35.492;-97.520;2022-10-31T15:10:53;7;6;
43479;PMS5003;29067;35.492;-97.520;2022-10-31T15:13:21;8;8;
43479;PMS5003;29067;35.492;-97.520;2022-10-31T15:15:50;8;8;
43479;PMS5003;29067;35.492;-97.520;2022-10-31T15:18:21;6;6;
43479;PMS5003;29067;35.492;-97.520;2022-10-31T15:20:52;9;7;
43479;PMS5003;29067;35.492;-97.520;2022-10-31T15:23:23;8;7;
43479;PMS5003;29067;35.492;-97.520;2022-10-31T15:25:57;8;7;
43479;PMS5003;29067;35.492;-97.520;2022-10-31T15:28:26;8;8;
43479;PMS5003;29067;35.492;-97.520;2022-10-31T15:30:55;8;7;
43479;PMS5003;29067;35.492;-97.520;2022-10-31T15:33:25;6;5;
43479;PMS5003;29067;35.492;-97.520;2022-10-31T15:35:56;9;9;
43479;PMS5003;29067;35.492;-97.520;2022-10-31T15:38:25;5;5;
43479;PMS5003;29067;35.492;-97.520;2022-10-31T15:40:56;5;5;
43479;PMS5003;29067;35.492;-97.520;2022-10-31T15:43:28;5;4;
43479;PMS5003;29067;35.492;-97.520;2022-10-31T15:46:03;3;2;
43479;PMS5003;29067;35.492;-97.520;2022-10-31T15:48:35;3;3;
43479;PMS5003;29067;35.492;-97.520;2022-10-31T15:51:04;3;3;
43479;PMS5003;29067;35.492;-97.520;2022-10-31T15:53:34;4;3;
43479;PMS5003;29067;35.492;-97.520;2022-10-31T15:56:09;4;3;
43479;PMS5003;29067;35.492;-97.520;2022-10-31T15:58:45;3;3;
43479;PMS5003;29067;35.492;-97.520;2022-10-31T16:01:20;2;2;
43479;PMS5003;29067;35.492;-97.520;2022-10-31T16:04:19;3;3;
43479;PMS5003;29067;35.492;-97.520;2022-10-31T16:06:56;2;2;
43479;PMS5003;29067;35.492;-97.520;2022-10-31T16:09:27;8;8;
43479;PMS5003;29067;35.492;-97.520;2022-10-31T16:11:56;7;7;
43479;PMS5003;29067;35.492;-97.520;2022-10-31T16:14:25;5;5;
43479;PMS5003;29067;35.492;-97.520;2022-10-31T16:16:55;4;4;
43479;PMS5003;29067;35.492;-97.520;2022-10-31T16:19:26;4;4;
43479;PMS5003;29067;35.492;-97.520;2022-10-31T16:22:01;4;4;
43479;PMS5003;29067;35.492;-97.520;2022-10-31T16:24:32;3;3;
43479;PMS5003;29067;35.492;-97.520;2022-10-31T16:27:05;3;3;
43479;PMS5003;29067;35.492;-97.520;2022-10-31T16:29:43;3;3;